sensor_id;sensor_type;location;lat;lon;timestamp;temperature;humidity
23669;DHT22;12011;47.422;15.018;2022-07-29T00:01:52;21.40;71.60
23669;DHT22;12011;47.422;15.018;2022-07-29T00:04:24;21.40;71.70
23669;DHT22;12011;47.422;15.018;2022-07-29T00:06:54;21.40;71.10
23669;DHT22;12011;47.422;15.018;2022-07-29T00:09:23;21.30;70.80
23669;DHT22;12011;47.422;15.018;2022-07-29T00:11:55;21.30;71.70
23669;DHT22;12011;47.422;15.018;2022-07-29T00:14:27;21.20;72.90
23669;DHT22;12011;47.422;15.018;2022-07-29T00:16:57;21.20;73.40
23669;DHT22;12011;47.422;15.018;2022-07-29T00:19:29;21.20;73.20
23669;DHT22;12011;47.422;15.018;2022-07-29T00:22:00;21.20;73.10
23669;DHT22;12011;47.422;15.018;2022-07-29T00:24:30;21.20;72.80
23669;DHT22;12011;47.422;15.018;2022-07-29T00:26:59;21.20;72.70
23669;DHT22;12011;47.422;15.018;2022-07-29T00:29:29;21.20;72.60
23669;DHT22;12011;47.422;15.018;2022-07-29T00:31:58;21.20;72.90
23669;DHT22;12011;47.422;15.018;2022-07-29T00:34:31;21.20;73.20
23669;DHT22;12011;47.422;15.018;2022-07-29T00:37:13;21.20;73.30
23669;DHT22;12011;47.422;15.018;2022-07-29T00:39:42;21.10;73.40
23669;DHT22;12011;47.422;15.018;2022-07-29T00:42:12;21.10;73.50
23669;DHT22;12011;47.422;15.018;2022-07-29T00:44:42;21.10;73.20
23669;DHT22;12011;47.422;15.018;2022-07-29T00:47:12;21.10;73.60
23669;DHT22;12011;47.422;15.018;2022-07-29T00:49:44;21.10;73.90
23669;DHT22;12011;47.422;15.018;2022-07-29T00:52:14;21.10;73.80
23669;DHT22;12011;47.422;15.018;2022-07-29T00:54:44;21.10;73.50
23669;DHT22;12011;47.422;15.018;2022-07-29T00:57:14;21.10;73.50
23669;DHT22;12011;47.422;15.018;2022-07-29T00:59:44;21.10;73.40
23669;DHT22;12011;47.422;15.018;2022-07-29T01:02:13;21.10;73.10
23669;DHT22;12011;47.422;15.018;2022-07-29T01:04:46;21.10;73.20
23669;DHT22;12011;47.422;15.018;2022-07-29T01:07:16;21.10;74.50
23669;DHT22;12011;47.422;15.018;2022-07-29T01:09:47;21.00;74.00
23669;DHT22;12011;47.422;15.018;2022-07-29T01:12:21;21.00;74.20
23669;DHT22;12011;47.422;15.018;2022-07-29T01:14:55;21.00;74.30
23669;DHT22;12011;47.422;15.018;2022-07-29T01:17:28;21.00;74.30
23669;DHT22;12011;47.422;15.018;2022-07-29T01:20:12;21.00;74.40
23669;DHT22;12011;47.422;15.018;2022-07-29T01:23:10;21.00;74.70
23669;DHT22;12011;47.422;15.018;2022-07-29T01:26:03;21.00;74.80
23669;DHT22;12011;47.422;15.018;2022-07-29T01:29:02;21.00;75.10
23669;DHT22;12011;47.422;15.018;2022-07-29T01:31:45;20.90;75.00
23669;DHT22;12011;47.422;15.018;2022-07-29T01:34:23;20.90;75.10
23669;DHT22;12011;47.422;15.018;2022-07-29T01:37:05;20.90;75.80
23669;DHT22;12011;47.422;15.018;2022-07-29T01:39:39;20.90;75.80
23669;DHT22;12011;47.422;15.018;2022-07-29T01:42:14;20.90;74.80
23669;DHT22;12011;47.422;15.018;2022-07-29T01:44:57;21.00;74.50
23669;DHT22;12011;47.422;15.018;2022-07-29T01:47:35;21.00;73.80
23669;DHT22;12011;47.422;15.018;2022-07-29T01:50:12;21.10;73.40
23669;DHT22;12011;47.422;15.018;2022-07-29T01:52:49;21.10;73.30
23669;DHT22;12011;47.422;15.018;2022-07-29T01:55:28;21.00;73.60
23669;DHT22;12011;47.422;15.018;2022-07-29T01:58:03;21.00;74.10
23669;DHT22;12011;47.422;15.018;2022-07-29T02:00:39;20.90;74.10
23669;DHT22;12011;47.422;15.018;2022-07-29T02:03:11;20.90;74.00
23669;DHT22;12011;47.422;15.018;2022-07-29T02:05:46;20.90;73.90
23669;DHT22;12011;47.422;15.018;2022-07-29T02:08:19;20.90;73.50
23669;DHT22;12011;47.422;15.018;2022-07-29T02:10:53;20.90;73.50
23669;DHT22;12011;47.422;15.018;2022-07-29T02:13:25;20.90;73.40
23669;DHT22;12011;47.422;15.018;2022-07-29T02:16:00;20.90;73.00
23669;DHT22;12011;47.422;15.018;2022-07-29T02:18:32;20.80;72.70
23669;DHT22;12011;47.422;15.018;2022-07-29T02:21:03;20.80;72.80
23669;DHT22;12011;47.422;15.018;2022-07-29T02:23:36;20.80;72.70
23669;DHT22;12011;47.422;15.018;2022-07-29T02:26:09;20.80;72.40
23669;DHT22;12011;47.422;15.018;2022-07-29T02:28:40;20.80;72.40
23669;DHT22;12011;47.422;15.018;2022-07-29T02:31:14;20.80;72.40
23669;DHT22;12011;47.422;15.018;2022-07-29T02:33:47;20.70;72.20
23669;DHT22;12011;47.422;15.018;2022-07-29T02:36:18;20.70;72.30
23669;DHT22;12011;47.422;15.018;2022-07-29T02:38:50;20.60;72.70
23669;DHT22;12011;47.422;15.018;2022-07-29T02:41:27;20.60;73.20
23669;DHT22;12011;47.422;15.018;2022-07-29T02:44:03;20.60;73.00
23669;DHT22;12011;47.422;15.018;2022-07-29T02:46:49;20.60;73.70
23669;DHT22;12011;47.422;15.018;2022-07-29T02:49:32;20.70;73.20
23669;DHT22;12011;47.422;15.018;2022-07-29T02:52:10;20.60;73.60
23669;DHT22;12011;47.422;15.018;2022-07-29T02:54:46;20.70;73.60
23669;DHT22;12011;47.422;15.018;2022-07-29T02:57:27;20.70;72.40
23669;DHT22;12011;47.422;15.018;2022-07-29T03:00:03;20.80;71.90
23669;DHT22;12011;47.422;15.018;2022-07-29T03:02:40;20.90;70.90
23669;DHT22;12011;47.422;15.018;2022-07-29T03:05:17;21.00;70.60
23669;DHT22;12011;47.422;15.018;2022-07-29T03:07:52;21.00;70.60
23669;DHT22;12011;47.422;15.018;2022-07-29T03:10:26;20.90;70.70
23669;DHT22;12011;47.422;15.018;2022-07-29T03:12:57;20.90;71.30
23669;DHT22;12011;47.422;15.018;2022-07-29T03:15:27;20.80;71.70
23669;DHT22;12011;47.422;15.018;2022-07-29T03:18:00;20.70;72.10
23669;DHT22;12011;47.422;15.018;2022-07-29T03:20:30;20.70;72.40
23669;DHT22;12011;47.422;15.018;2022-07-29T03:22:59;20.70;72.30
23669;DHT22;12011;47.422;15.018;2022-07-29T03:25:29;20.80;70.90
23669;DHT22;12011;47.422;15.018;2022-07-29T03:28:00;20.80;71.40
23669;DHT22;12011;47.422;15.018;2022-07-29T03:30:29;20.80;71.40
23669;DHT22;12011;47.422;15.018;2022-07-29T03:33:01;20.70;71.90
23669;DHT22;12011;47.422;15.018;2022-07-29T03:35:31;20.70;72.20
23669;DHT22;12011;47.422;15.018;2022-07-29T03:38:01;20.60;72.10
23669;DHT22;12011;47.422;15.018;2022-07-29T03:40:35;20.60;72.40
23669;DHT22;12011;47.422;15.018;2022-07-29T03:43:10;20.50;72.70
23669;DHT22;12011;47.422;15.018;2022-07-29T03:45:44;20.50;72.80
23669;DHT22;12011;47.422;15.018;2022-07-29T03:48:21;20.50;72.70
23669;DHT22;12011;47.422;15.018;2022-07-29T03:50:52;20.50;72.60
23669;DHT22;12011;47.422;15.018;2022-07-29T03:53:23;20.60;72.30
23669;DHT22;12011;47.422;15.018;2022-07-29T03:55:59;20.60;72.00
23669;DHT22;12011;47.422;15.018;2022-07-29T03:58:31;20.60;72.40
23669;DHT22;12011;47.422;15.018;2022-07-29T04:01:01;20.50;72.90
23669;DHT22;12011;47.422;15.018;2022-07-29T04:03:33;20.50;73.00
23669;DHT22;12011;47.422;15.018;2022-07-29T04:06:06;20.50;73.20
23669;DHT22;12011;47.422;15.018;2022-07-29T04:08:35;20.50;73.50
23669;DHT22;12011;47.422;15.018;2022-07-29T04:11:06;20.50;73.60
23669;DHT22;12011;47.422;15.018;2022-07-29T04:13:35;20.50;74.40
23669;DHT22;12011;47.422;15.018;2022-07-29T04:16:05;20.40;74.50
23669;DHT22;12011;47.422;15.018;2022-07-29T04:18:37;20.40;74.80
23669;DHT22;12011;47.422;15.018;2022-07-29T04:21:07;20.40;74.80
23669;DHT22;12011;47.422;15.018;2022-07-29T04:23:37;20.40;74.90
23669;DHT22;12011;47.422;15.018;2022-07-29T04:26:07;20.40;75.10
23669;DHT22;12011;47.422;15.018;2022-07-29T04:28:37;20.40;75.90
23669;DHT22;12011;47.422;15.018;2022-07-29T04:31:08;20.40;76.40
23669;DHT22;12011;47.422;15.018;2022-07-29T04:33:40;20.40;76.80
23669;DHT22;12011;47.422;15.018;2022-07-29T04:36:10;20.40;77.00
23669;DHT22;12011;47.422;15.018;2022-07-29T04:38:40;20.40;77.10
23669;DHT22;12011;47.422;15.018;2022-07-29T04:41:09;20.40;77.10
23669;DHT22;12011;47.422;15.018;2022-07-29T04:43:39;20.40;77.80
23669;DHT22;12011;47.422;15.018;2022-07-29T04:46:09;20.50;78.40
23669;DHT22;12011;47.422;15.018;2022-07-29T04:48:41;20.50;78.30
23669;DHT22;12011;47.422;15.018;2022-07-29T04:51:10;20.50;78.40
23669;DHT22;12011;47.422;15.018;2022-07-29T04:53:40;20.60;79.00
23669;DHT22;12011;47.422;15.018;2022-07-29T04:56:09;20.60;78.60
23669;DHT22;12011;47.422;15.018;2022-07-29T04:58:39;20.60;77.60
23669;DHT22;12011;47.422;15.018;2022-07-29T05:01:08;20.60;76.90
23669;DHT22;12011;47.422;15.018;2022-07-29T05:03:41;20.70;76.70
23669;DHT22;12011;47.422;15.018;2022-07-29T05:06:11;20.80;76.10
23669;DHT22;12011;47.422;15.018;2022-07-29T05:08:41;20.80;75.10
23669;DHT22;12011;47.422;15.018;2022-07-29T05:11:10;20.90;75.90
23669;DHT22;12011;47.422;15.018;2022-07-29T05:13:40;20.80;76.30
23669;DHT22;12011;47.422;15.018;2022-07-29T05:16:09;20.80;77.00
23669;DHT22;12011;47.422;15.018;2022-07-29T05:18:42;20.90;76.40
23669;DHT22;12011;47.422;15.018;2022-07-29T05:21:11;21.00;75.70
23669;DHT22;12011;47.422;15.018;2022-07-29T05:23:41;21.00;75.30
23669;DHT22;12011;47.422;15.018;2022-07-29T05:26:11;21.10;74.00
23669;DHT22;12011;47.422;15.018;2022-07-29T05:28:40;21.10;72.70
23669;DHT22;12011;47.422;15.018;2022-07-29T05:31:10;21.20;72.30
23669;DHT22;12011;47.422;15.018;2022-07-29T05:33:43;21.20;71.70
23669;DHT22;12011;47.422;15.018;2022-07-29T05:36:12;21.20;71.70
23669;DHT22;12011;47.422;15.018;2022-07-29T05:38:42;21.20;72.10
23669;DHT22;12011;47.422;15.018;2022-07-29T05:41:11;21.20;73.00
23669;DHT22;12011;47.422;15.018;2022-07-29T05:43:41;21.30;73.50
23669;DHT22;12011;47.422;15.018;2022-07-29T05:46:11;21.30;72.80
23669;DHT22;12011;47.422;15.018;2022-07-29T05:48:43;21.40;73.40
23669;DHT22;12011;47.422;15.018;2022-07-29T05:51:12;21.30;72.40
23669;DHT22;12011;47.422;15.018;2022-07-29T05:53:42;21.40;72.00
23669;DHT22;12011;47.422;15.018;2022-07-29T05:56:11;21.40;72.40
23669;DHT22;12011;47.422;15.018;2022-07-29T05:58:41;21.30;72.80
23669;DHT22;12011;47.422;15.018;2022-07-29T06:01:11;21.30;73.70
23669;DHT22;12011;47.422;15.018;2022-07-29T06:03:43;21.30;73.80
23669;DHT22;12011;47.422;15.018;2022-07-29T06:06:13;21.30;73.80
23669;DHT22;12011;47.422;15.018;2022-07-29T06:08:42;21.40;74.90
23669;DHT22;12011;47.422;15.018;2022-07-29T06:11:12;21.40;74.50
23669;DHT22;12011;47.422;15.018;2022-07-29T06:13:41;21.40;73.90
23669;DHT22;12011;47.422;15.018;2022-07-29T06:16:11;21.50;72.00
23669;DHT22;12011;47.422;15.018;2022-07-29T06:18:43;21.60;69.70
23669;DHT22;12011;47.422;15.018;2022-07-29T06:21:12;21.80;69.20
23669;DHT22;12011;47.422;15.018;2022-07-29T06:23:44;21.90;69.00
23669;DHT22;12011;47.422;15.018;2022-07-29T06:26:14;21.90;68.90
23669;DHT22;12011;47.422;15.018;2022-07-29T06:28:44;21.90;69.00
23669;DHT22;12011;47.422;15.018;2022-07-29T06:31:13;22.00;68.90
23669;DHT22;12011;47.422;15.018;2022-07-29T06:33:45;22.00;68.80
23669;DHT22;12011;47.422;15.018;2022-07-29T06:36:15;22.10;69.40
23669;DHT22;12011;47.422;15.018;2022-07-29T06:38:44;22.10;69.20
23669;DHT22;12011;47.422;15.018;2022-07-29T06:41:14;22.10;69.10
23669;DHT22;12011;47.422;15.018;2022-07-29T06:43:45;22.20;68.60
23669;DHT22;12011;47.422;15.018;2022-07-29T06:46:18;22.20;68.50
23669;DHT22;12011;47.422;15.018;2022-07-29T06:48:51;22.30;67.70
23669;DHT22;12011;47.422;15.018;2022-07-29T06:51:21;22.30;65.70
23669;DHT22;12011;47.422;15.018;2022-07-29T06:53:52;22.30;66.00
23669;DHT22;12011;47.422;15.018;2022-07-29T06:56:23;22.30;65.40
23669;DHT22;12011;47.422;15.018;2022-07-29T06:58:53;22.30;65.00
23669;DHT22;12011;47.422;15.018;2022-07-29T07:01:22;22.30;65.10
23669;DHT22;12011;47.422;15.018;2022-07-29T07:03:55;22.30;66.30
23669;DHT22;12011;47.422;15.018;2022-07-29T07:06:25;22.30;66.40
23669;DHT22;12011;47.422;15.018;2022-07-29T07:08:54;22.30;66.30
23669;DHT22;12011;47.422;15.018;2022-07-29T07:11:24;22.40;65.80
23669;DHT22;12011;47.422;15.018;2022-07-29T07:13:54;22.40;65.30
23669;DHT22;12011;47.422;15.018;2022-07-29T07:16:23;22.50;65.20
23669;DHT22;12011;47.422;15.018;2022-07-29T07:18:55;22.50;64.50
23669;DHT22;12011;47.422;15.018;2022-07-29T07:21:25;22.60;64.00
23669;DHT22;12011;47.422;15.018;2022-07-29T07:23:55;22.60;63.20
23669;DHT22;12011;47.422;15.018;2022-07-29T07:26:25;22.70;63.10
23669;DHT22;12011;47.422;15.018;2022-07-29T07:28:55;22.70;63.70
23669;DHT22;12011;47.422;15.018;2022-07-29T07:31:26;22.70;63.30
23669;DHT22;12011;47.422;15.018;2022-07-29T07:33:58;22.70;62.20
23669;DHT22;12011;47.422;15.018;2022-07-29T07:36:28;22.70;62.10
23669;DHT22;12011;47.422;15.018;2022-07-29T07:38:57;22.70;62.60
23669;DHT22;12011;47.422;15.018;2022-07-29T07:41:28;22.70;61.80
23669;DHT22;12011;47.422;15.018;2022-07-29T07:43:58;22.70;62.00
23669;DHT22;12011;47.422;15.018;2022-07-29T07:46:27;22.80;62.30
23669;DHT22;12011;47.422;15.018;2022-07-29T07:49:00;22.80;61.40
23669;DHT22;12011;47.422;15.018;2022-07-29T07:51:29;22.80;61.90
23669;DHT22;12011;47.422;15.018;2022-07-29T07:53:59;22.80;61.70
23669;DHT22;12011;47.422;15.018;2022-07-29T07:56:29;22.80;61.30
23669;DHT22;12011;47.422;15.018;2022-07-29T07:58:59;22.80;60.90
23669;DHT22;12011;47.422;15.018;2022-07-29T08:01:28;22.90;61.00
23669;DHT22;12011;47.422;15.018;2022-07-29T08:04:00;22.90;60.90
23669;DHT22;12011;47.422;15.018;2022-07-29T08:06:30;23.00;60.60
23669;DHT22;12011;47.422;15.018;2022-07-29T08:09:00;22.90;61.80
23669;DHT22;12011;47.422;15.018;2022-07-29T08:11:30;23.00;60.90
23669;DHT22;12011;47.422;15.018;2022-07-29T08:14:00;23.00;60.40
23669;DHT22;12011;47.422;15.018;2022-07-29T08:16:30;23.00;60.70
23669;DHT22;12011;47.422;15.018;2022-07-29T08:19:02;23.00;60.60
23669;DHT22;12011;47.422;15.018;2022-07-29T08:21:32;23.00;60.70
23669;DHT22;12011;47.422;15.018;2022-07-29T08:24:02;23.00;60.70
23669;DHT22;12011;47.422;15.018;2022-07-29T08:26:44;23.00;60.70
23669;DHT22;12011;47.422;15.018;2022-07-29T08:29:14;23.00;60.70
23669;DHT22;12011;47.422;15.018;2022-07-29T08:31:44;22.90;60.70
23669;DHT22;12011;47.422;15.018;2022-07-29T08:34:17;23.00;60.60
23669;DHT22;12011;47.422;15.018;2022-07-29T08:36:47;22.90;60.90
23669;DHT22;12011;47.422;15.018;2022-07-29T08:39:16;23.00;61.10
23669;DHT22;12011;47.422;15.018;2022-07-29T08:41:46;22.90;61.50
23669;DHT22;12011;47.422;15.018;2022-07-29T08:44:17;23.00;61.20
23669;DHT22;12011;47.422;15.018;2022-07-29T08:46:49;22.90;62.10
23669;DHT22;12011;47.422;15.018;2022-07-29T08:49:21;23.00;61.90
23669;DHT22;12011;47.422;15.018;2022-07-29T08:51:53;22.90;61.10
23669;DHT22;12011;47.422;15.018;2022-07-29T08:54:25;22.90;61.30
23669;DHT22;12011;47.422;15.018;2022-07-29T08:56:56;23.00;61.40
23669;DHT22;12011;47.422;15.018;2022-07-29T08:59:27;23.00;61.90
23669;DHT22;12011;47.422;15.018;2022-07-29T09:02:00;22.90;61.40
23669;DHT22;12011;47.422;15.018;2022-07-29T09:04:34;23.00;61.90
23669;DHT22;12011;47.422;15.018;2022-07-29T09:07:06;23.00;61.10
23669;DHT22;12011;47.422;15.018;2022-07-29T09:09:36;23.00;60.80
23669;DHT22;12011;47.422;15.018;2022-07-29T09:12:06;22.90;60.60
23669;DHT22;12011;47.422;15.018;2022-07-29T09:14:37;22.90;61.00
23669;DHT22;12011;47.422;15.018;2022-07-29T09:17:07;22.80;61.00
23669;DHT22;12011;47.422;15.018;2022-07-29T09:19:40;22.80;60.90
23669;DHT22;12011;47.422;15.018;2022-07-29T09:22:09;22.80;61.20
23669;DHT22;12011;47.422;15.018;2022-07-29T09:24:43;22.80;61.30
23669;DHT22;12011;47.422;15.018;2022-07-29T09:27:22;22.80;61.20
23669;DHT22;12011;47.422;15.018;2022-07-29T09:29:59;22.80;61.20
23669;DHT22;12011;47.422;15.018;2022-07-29T09:32:30;22.80;61.30
23669;DHT22;12011;47.422;15.018;2022-07-29T09:35:19;22.70;61.50
23669;DHT22;12011;47.422;15.018;2022-07-29T09:37:51;22.70;61.50
23669;DHT22;12011;47.422;15.018;2022-07-29T09:40:22;22.70;61.40
23669;DHT22;12011;47.422;15.018;2022-07-29T09:42:54;22.70;61.50
23669;DHT22;12011;47.422;15.018;2022-07-29T09:45:29;22.70;61.60
23669;DHT22;12011;47.422;15.018;2022-07-29T09:48:13;22.70;61.60
23669;DHT22;12011;47.422;15.018;2022-07-29T09:50:47;22.70;61.70
23669;DHT22;12011;47.422;15.018;2022-07-29T09:53:37;22.70;61.90
23669;DHT22;12011;47.422;15.018;2022-07-29T09:56:07;22.70;61.80
23669;DHT22;12011;47.422;15.018;2022-07-29T09:58:36;22.70;61.80
23669;DHT22;12011;47.422;15.018;2022-07-29T10:01:06;22.70;62.10
23669;DHT22;12011;47.422;15.018;2022-07-29T10:03:50;22.70;62.10
23669;DHT22;12011;47.422;15.018;2022-07-29T10:06:23;22.60;62.10
23669;DHT22;12011;47.422;15.018;2022-07-29T10:08:53;22.70;62.20
23669;DHT22;12011;47.422;15.018;2022-07-29T10:11:23;22.70;62.20
23669;DHT22;12011;47.422;15.018;2022-07-29T10:13:52;22.70;61.90
23669;DHT22;12011;47.422;15.018;2022-07-29T10:16:22;22.70;61.80
23669;DHT22;12011;47.422;15.018;2022-07-29T10:18:59;22.70;61.80
23669;DHT22;12011;47.422;15.018;2022-07-29T10:21:31;22.70;61.70
23669;DHT22;12011;47.422;15.018;2022-07-29T10:24:04;22.70;61.70
23669;DHT22;12011;47.422;15.018;2022-07-29T10:26:36;22.70;61.60
23669;DHT22;12011;47.422;15.018;2022-07-29T10:29:07;22.70;61.70
23669;DHT22;12011;47.422;15.018;2022-07-29T10:31:47;22.70;62.20
23669;DHT22;12011;47.422;15.018;2022-07-29T10:34:30;22.70;62.20
23669;DHT22;12011;47.422;15.018;2022-07-29T10:37:22;22.70;61.90
23669;DHT22;12011;47.422;15.018;2022-07-29T10:40:07;22.70;61.70
23669;DHT22;12011;47.422;15.018;2022-07-29T10:43:02;22.80;61.90
23669;DHT22;12011;47.422;15.018;2022-07-29T10:45:39;22.80;61.90
23669;DHT22;12011;47.422;15.018;2022-07-29T10:48:09;22.80;62.00
23669;DHT22;12011;47.422;15.018;2022-07-29T10:50:54;22.90;61.80
23669;DHT22;12011;47.422;15.018;2022-07-29T10:53:49;22.90;61.90
23669;DHT22;12011;47.422;15.018;2022-07-29T10:56:26;22.90;61.90
23669;DHT22;12011;47.422;15.018;2022-07-29T10:59:24;22.90;62.60
23669;DHT22;12011;47.422;15.018;2022-07-29T11:01:57;22.90;62.50
23669;DHT22;12011;47.422;15.018;2022-07-29T11:07:30;23.00;62.70
23669;DHT22;12011;47.422;15.018;2022-07-29T11:10:26;23.00;63.10
23669;DHT22;12011;47.422;15.018;2022-07-29T11:12:56;23.10;63.00
23669;DHT22;12011;47.422;15.018;2022-07-29T11:15:25;23.10;62.20
23669;DHT22;12011;47.422;15.018;2022-07-29T11:18:07;23.10;62.10
23669;DHT22;12011;47.422;15.018;2022-07-29T11:20:40;23.10;62.10
23669;DHT22;12011;47.422;15.018;2022-07-29T11:23:19;23.10;63.00
23669;DHT22;12011;47.422;15.018;2022-07-29T11:26:17;23.10;62.30
23669;DHT22;12011;47.422;15.018;2022-07-29T11:29:03;23.10;62.00
23669;DHT22;12011;47.422;15.018;2022-07-29T11:31:42;23.20;61.70
23669;DHT22;12011;47.422;15.018;2022-07-29T11:34:26;23.20;61.30
23669;DHT22;12011;47.422;15.018;2022-07-29T11:37:18;23.20;61.50
23669;DHT22;12011;47.422;15.018;2022-07-29T11:40:13;23.20;61.50
23669;DHT22;12011;47.422;15.018;2022-07-29T11:42:51;23.20;61.40
23669;DHT22;12011;47.422;15.018;2022-07-29T11:45:23;23.20;61.20
23669;DHT22;12011;47.422;15.018;2022-07-29T11:47:57;23.20;61.40
23669;DHT22;12011;47.422;15.018;2022-07-29T11:50:33;23.10;61.30
23669;DHT22;12011;47.422;15.018;2022-07-29T11:53:12;23.10;61.50
23669;DHT22;12011;47.422;15.018;2022-07-29T11:55:42;23.10;61.30
23669;DHT22;12011;47.422;15.018;2022-07-29T11:58:15;23.10;61.20
23669;DHT22;12011;47.422;15.018;2022-07-29T12:00:53;23.20;61.40
23669;DHT22;12011;47.422;15.018;2022-07-29T12:03:25;23.20;61.20
23669;DHT22;12011;47.422;15.018;2022-07-29T12:05:57;23.20;61.00
23669;DHT22;12011;47.422;15.018;2022-07-29T12:08:26;23.20;60.90
23669;DHT22;12011;47.422;15.018;2022-07-29T12:10:57;23.20;60.80
23669;DHT22;12011;47.422;15.018;2022-07-29T12:13:38;23.30;60.90
23669;DHT22;12011;47.422;15.018;2022-07-29T12:16:08;23.30;60.60
23669;DHT22;12011;47.422;15.018;2022-07-29T12:18:38;23.30;60.50
23669;DHT22;12011;47.422;15.018;2022-07-29T12:21:08;23.30;60.50
23669;DHT22;12011;47.422;15.018;2022-07-29T12:23:38;23.30;60.60
23669;DHT22;12011;47.422;15.018;2022-07-29T12:26:07;23.20;60.70
23669;DHT22;12011;47.422;15.018;2022-07-29T12:28:40;23.30;60.80
23669;DHT22;12011;47.422;15.018;2022-07-29T12:31:14;23.30;60.70
23669;DHT22;12011;47.422;15.018;2022-07-29T12:33:52;23.30;60.30
23669;DHT22;12011;47.422;15.018;2022-07-29T12:36:22;23.30;60.40
23669;DHT22;12011;47.422;15.018;2022-07-29T12:38:52;23.30;60.80
23669;DHT22;12011;47.422;15.018;2022-07-29T12:41:22;23.20;60.70
23669;DHT22;12011;47.422;15.018;2022-07-29T12:43:56;23.30;60.80
23669;DHT22;12011;47.422;15.018;2022-07-29T12:46:25;23.30;60.40
23669;DHT22;12011;47.422;15.018;2022-07-29T12:48:55;23.30;60.30
23669;DHT22;12011;47.422;15.018;2022-07-29T12:51:29;23.40;60.40
23669;DHT22;12011;47.422;15.018;2022-07-29T12:54:05;23.40;60.20
23669;DHT22;12011;47.422;15.018;2022-07-29T12:56:36;23.40;60.00
23669;DHT22;12011;47.422;15.018;2022-07-29T12:59:18;23.40;60.20
23669;DHT22;12011;47.422;15.018;2022-07-29T13:01:51;23.40;60.30
23669;DHT22;12011;47.422;15.018;2022-07-29T13:04:26;23.40;60.50
23669;DHT22;12011;47.422;15.018;2022-07-29T13:07:00;23.30;60.40
23669;DHT22;12011;47.422;15.018;2022-07-29T13:09:40;23.40;60.30
23669;DHT22;12011;47.422;15.018;2022-07-29T13:12:13;23.40;60.20
23669;DHT22;12011;47.422;15.018;2022-07-29T13:14:47;23.40;60.20
23669;DHT22;12011;47.422;15.018;2022-07-29T13:17:19;23.40;60.50
23669;DHT22;12011;47.422;15.018;2022-07-29T13:19:52;23.40;60.50
23669;DHT22;12011;47.422;15.018;2022-07-29T13:22:24;23.40;60.50
23669;DHT22;12011;47.422;15.018;2022-07-29T13:24:56;23.40;60.50
23669;DHT22;12011;47.422;15.018;2022-07-29T13:27:29;23.40;60.80
23669;DHT22;12011;47.422;15.018;2022-07-29T13:30:05;23.40;60.90
23669;DHT22;12011;47.422;15.018;2022-07-29T13:32:36;23.40;60.80
23669;DHT22;12011;47.422;15.018;2022-07-29T13:35:08;23.50;60.90
23669;DHT22;12011;47.422;15.018;2022-07-29T13:37:39;23.40;61.20
23669;DHT22;12011;47.422;15.018;2022-07-29T13:40:11;23.40;61.20
23669;DHT22;12011;47.422;15.018;2022-07-29T13:42:42;23.40;61.40
23669;DHT22;12011;47.422;15.018;2022-07-29T13:45:14;23.40;61.50
23669;DHT22;12011;47.422;15.018;2022-07-29T13:47:44;23.40;61.40
23669;DHT22;12011;47.422;15.018;2022-07-29T13:50:13;23.40;61.30
23669;DHT22;12011;47.422;15.018;2022-07-29T13:52:43;23.40;61.10
23669;DHT22;12011;47.422;15.018;2022-07-29T13:55:14;23.50;61.00
23669;DHT22;12011;47.422;15.018;2022-07-29T13:57:44;23.40;60.90
23669;DHT22;12011;47.422;15.018;2022-07-29T14:00:17;23.50;61.00
23669;DHT22;12011;47.422;15.018;2022-07-29T14:02:46;23.50;60.80
23669;DHT22;12011;47.422;15.018;2022-07-29T14:05:16;23.50;60.80
23669;DHT22;12011;47.422;15.018;2022-07-29T14:07:46;23.50;60.50
23669;DHT22;12011;47.422;15.018;2022-07-29T14:10:15;23.50;60.40
23669;DHT22;12011;47.422;15.018;2022-07-29T14:12:47;23.50;60.40
23669;DHT22;12011;47.422;15.018;2022-07-29T14:15:20;23.50;60.40
23669;DHT22;12011;47.422;15.018;2022-07-29T14:17:49;23.50;60.30
23669;DHT22;12011;47.422;15.018;2022-07-29T14:20:19;23.60;60.20
23669;DHT22;12011;47.422;15.018;2022-07-29T14:22:49;23.60;60.30
23669;DHT22;12011;47.422;15.018;2022-07-29T14:25:18;23.60;60.30
23669;DHT22;12011;47.422;15.018;2022-07-29T14:27:48;23.60;60.50
23669;DHT22;12011;47.422;15.018;2022-07-29T14:30:21;23.50;60.30
23669;DHT22;12011;47.422;15.018;2022-07-29T14:32:51;23.50;60.30
23669;DHT22;12011;47.422;15.018;2022-07-29T14:35:21;23.50;60.20
23669;DHT22;12011;47.422;15.018;2022-07-29T14:37:50;23.60;60.20
23669;DHT22;12011;47.422;15.018;2022-07-29T14:40:20;23.60;60.20
23669;DHT22;12011;47.422;15.018;2022-07-29T14:42:51;23.60;60.00
23669;DHT22;12011;47.422;15.018;2022-07-29T14:45:24;23.60;60.00
23669;DHT22;12011;47.422;15.018;2022-07-29T14:47:54;23.60;60.00
23669;DHT22;12011;47.422;15.018;2022-07-29T14:50:24;23.60;60.00
23669;DHT22;12011;47.422;15.018;2022-07-29T14:52:54;23.70;60.00
23669;DHT22;12011;47.422;15.018;2022-07-29T14:55:23;23.70;60.00
23669;DHT22;12011;47.422;15.018;2022-07-29T14:57:53;23.70;59.70
23669;DHT22;12011;47.422;15.018;2022-07-29T15:00:26;23.70;59.60
23669;DHT22;12011;47.422;15.018;2022-07-29T15:02:58;23.60;59.50
23669;DHT22;12011;47.422;15.018;2022-07-29T15:05:28;23.70;59.50
23669;DHT22;12011;47.422;15.018;2022-07-29T15:07:59;23.70;59.20
23669;DHT22;12011;47.422;15.018;2022-07-29T15:10:31;23.70;59.20
23669;DHT22;12011;47.422;15.018;2022-07-29T15:13:00;23.80;59.00
23669;DHT22;12011;47.422;15.018;2022-07-29T15:15:33;23.70;58.80
23669;DHT22;12011;47.422;15.018;2022-07-29T15:18:03;23.70;58.70
23669;DHT22;12011;47.422;15.018;2022-07-29T15:20:33;23.70;58.70
23669;DHT22;12011;47.422;15.018;2022-07-29T15:23:03;23.70;58.60
23669;DHT22;12011;47.422;15.018;2022-07-29T15:25:35;23.70;58.50
23669;DHT22;12011;47.422;15.018;2022-07-29T15:28:05;23.70;58.60
23669;DHT22;12011;47.422;15.018;2022-07-29T15:30:38;23.80;58.60
23669;DHT22;12011;47.422;15.018;2022-07-29T15:33:09;23.80;58.40
23669;DHT22;12011;47.422;15.018;2022-07-29T15:35:39;23.80;58.60
23669;DHT22;12011;47.422;15.018;2022-07-29T15:38:09;23.70;58.40
23669;DHT22;12011;47.422;15.018;2022-07-29T15:40:39;23.70;58.40
23669;DHT22;12011;47.422;15.018;2022-07-29T15:43:10;23.70;58.30
23669;DHT22;12011;47.422;15.018;2022-07-29T15:45:42;23.80;58.30
23669;DHT22;12011;47.422;15.018;2022-07-29T15:48:38;23.80;58.30
23669;DHT22;12011;47.422;15.018;2022-07-29T15:51:08;23.80;58.00
23669;DHT22;12011;47.422;15.018;2022-07-29T15:53:38;23.70;57.90